createdAt,value
2023-05-23T00:01:46.679Z,17.17
2023-05-23T00:04:18.985Z,17.24
2023-05-23T00:06:50.563Z,17.19
2023-05-23T00:09:20.654Z,17.19
2023-05-23T00:11:50.557Z,17.13
2023-05-23T00:14:20.164Z,17.37
2023-05-23T00:16:50.082Z,17.37
2023-05-23T00:19:19.999Z,17.09
2023-05-23T00:21:50.822Z,17.16
2023-05-23T00:24:21.035Z,17.30
2023-05-23T00:26:51.421Z,16.98
2023-05-23T00:29:21.968Z,17.08
2023-05-23T00:31:52.042Z,16.91
2023-05-23T00:34:25.332Z,16.72
2023-05-23T00:36:55.214Z,16.92
2023-05-23T00:39:25.037Z,17.23
2023-05-23T00:41:54.882Z,16.99
2023-05-23T00:44:25.035Z,16.91
2023-05-23T00:46:57.382Z,16.77
2023-05-23T00:49:28.513Z,16.69
2023-05-23T00:51:58.438Z,16.78
2023-05-23T00:54:34.215Z,16.63
2023-05-23T00:57:04.305Z,16.82
2023-05-23T00:59:37.390Z,16.88
2023-05-23T01:02:07.667Z,16.55
2023-05-23T01:04:37.819Z,16.30
2023-05-23T01:07:07.726Z,16.30
2023-05-23T01:09:37.742Z,16.42
2023-05-23T01:12:28.334Z,16.53
2023-05-23T01:15:13.443Z,16.64
2023-05-23T01:18:14.482Z,16.50
2023-05-23T01:20:50.162Z,16.51
2023-05-23T01:23:44.012Z,16.16
2023-05-23T01:26:34.965Z,16.25
2023-05-23T01:29:10.945Z,16.25
2023-05-23T01:31:47.019Z,15.97
2023-05-23T01:34:19.077Z,16.23
2023-05-23T01:36:56.440Z,16.11
2023-05-23T01:39:26.303Z,16.12
2023-05-23T01:41:56.305Z,16.14
2023-05-23T01:44:26.413Z,16.25
2023-05-23T01:46:57.499Z,16.19
2023-05-23T01:49:28.494Z,16.33
2023-05-23T01:52:01.855Z,16.08
2023-05-23T01:54:33.333Z,16.11
2023-05-23T01:57:03.906Z,16.06
2023-05-23T01:59:34.580Z,16.24
2023-05-23T02:02:04.452Z,16.26
2023-05-23T02:04:34.798Z,16.12
2023-05-23T02:07:05.000Z,16.15
2023-05-23T02:09:35.394Z,15.96
2023-05-23T02:12:05.474Z,16.09
2023-05-23T02:14:37.486Z,16.05
2023-05-23T02:17:07.584Z,16.07
2023-05-23T02:19:38.613Z,15.97
2023-05-23T02:22:08.731Z,15.96
2023-05-23T02:24:38.882Z,15.70
2023-05-23T02:27:09.092Z,15.91
2023-05-23T02:29:39.330Z,15.78
2023-05-23T02:32:09.362Z,15.78
2023-05-23T02:34:40.288Z,16.07
2023-05-23T02:37:10.513Z,16.07
2023-05-23T02:39:41.084Z,16.07
2023-05-23T02:42:11.082Z,15.81
2023-05-23T02:44:41.378Z,15.96
2023-05-23T02:47:11.232Z,16.01
2023-05-23T02:49:41.069Z,16.12
2023-05-23T02:52:10.690Z,16.12
2023-05-23T02:54:40.959Z,16.21
2023-05-23T02:57:10.984Z,15.87
2023-05-23T02:59:42.067Z,15.89
2023-05-23T03:02:13.482Z,15.80
2023-05-23T03:04:43.459Z,16.10
2023-05-23T03:07:24.492Z,16.06
2023-05-23T03:09:46.689Z,16.05
2023-05-23T03:12:18.339Z,15.48
2023-05-23T03:14:48.217Z,15.48
2023-05-23T03:17:18.326Z,15.53
2023-05-23T03:19:48.494Z,15.58
2023-05-23T03:22:18.520Z,15.59
2023-05-23T03:24:48.718Z,15.65
2023-05-23T03:27:18.585Z,15.50
2023-05-23T03:29:48.751Z,15.84
2023-05-23T03:32:18.682Z,15.84
2023-05-23T03:34:49.029Z,15.83
2023-05-23T03:37:18.694Z,15.83
2023-05-23T03:39:48.569Z,15.75
2023-05-23T03:42:19.751Z,15.83
2023-05-23T03:44:49.916Z,15.88
2023-05-23T03:47:19.849Z,15.91
2023-05-23T03:49:51.235Z,15.86
2023-05-23T03:52:21.179Z,15.87
2023-05-23T03:54:51.747Z,15.96
2023-05-23T03:57:22.780Z,16.03
2023-05-23T03:59:53.257Z,15.83
2023-05-23T04:02:23.525Z,15.70
2023-05-23T04:04:54.229Z,15.70
2023-05-23T04:07:25.768Z,15.99
2023-05-23T04:09:56.180Z,16.24
2023-05-23T04:12:26.137Z,16.30
2023-05-23T04:14:56.050Z,16.25
2023-05-23T04:17:28.138Z,16.25
2023-05-23T04:19:58.608Z,16.11
2023-05-23T04:22:28.365Z,16.11
2023-05-23T04:24:58.349Z,15.98
2023-05-23T04:27:30.872Z,16.07
2023-05-23T04:30:01.255Z,15.87
2023-05-23T04:32:32.881Z,15.88
2023-05-23T04:35:04.289Z,15.97
2023-05-23T04:37:35.272Z,15.97
2023-05-23T04:40:08.896Z,15.94
2023-05-23T04:42:42.348Z,15.72
2023-05-23T04:45:13.808Z,15.83
2023-05-23T04:48:00.487Z,15.67
2023-05-23T04:50:40.839Z,15.74
2023-05-23T04:53:10.946Z,15.61
2023-05-23T04:55:41.172Z,15.58
2023-05-23T04:58:13.055Z,15.32
2023-05-23T05:00:44.156Z,15.32
2023-05-23T05:03:16.607Z,15.51
2023-05-23T05:05:47.440Z,15.68
2023-05-23T05:08:20.001Z,15.29
2023-05-23T05:10:49.690Z,15.50
2023-05-23T05:13:21.663Z,15.52
2023-05-23T05:15:53.415Z,15.55
2023-05-23T05:18:23.411Z,15.22
2023-05-23T05:20:53.629Z,15.57
2023-05-23T05:23:31.694Z,15.39
2023-05-23T05:26:02.120Z,15.41
2023-05-23T05:28:32.263Z,15.58
2023-05-23T05:31:03.791Z,15.41
2023-05-23T05:33:36.326Z,15.36
2023-05-23T05:36:08.762Z,15.23
2023-05-23T05:38:38.587Z,15.25
2023-05-23T05:41:09.480Z,15.07
2023-05-23T05:43:41.303Z,15.23
2023-05-23T05:46:12.780Z,14.95
2023-05-23T05:48:43.025Z,14.93
2023-05-23T05:51:14.669Z,14.96
2023-05-23T05:53:45.052Z,15.20
2023-05-23T05:56:16.635Z,15.01
2023-05-23T05:58:46.604Z,14.81
2023-05-23T06:01:18.313Z,14.88
2023-05-23T06:03:48.644Z,15.20
2023-05-23T06:06:19.884Z,14.94
2023-05-23T06:08:50.395Z,14.58
2023-05-23T06:11:20.231Z,14.58
2023-05-23T06:13:50.385Z,14.83
2023-05-23T06:16:21.022Z,15.00
2023-05-23T06:18:51.437Z,14.95
2023-05-23T06:21:22.243Z,14.88
2023-05-23T06:23:52.629Z,14.80
2023-05-23T06:26:23.146Z,14.80
2023-05-23T06:28:54.846Z,14.55
2023-05-23T06:31:24.700Z,14.55
2023-05-23T06:33:54.629Z,14.75
2023-05-23T06:36:24.551Z,14.75
2023-05-23T06:38:54.749Z,14.85
2023-05-23T06:41:24.862Z,14.86
2023-05-23T06:43:55.345Z,14.81
2023-05-23T06:46:26.609Z,14.71
2023-05-23T06:49:13.265Z,15.03
2023-05-23T06:51:28.584Z,15.19
2023-05-23T06:53:58.980Z,14.86
2023-05-23T06:56:28.894Z,14.86
2023-05-23T06:59:00.786Z,15.02
2023-05-23T07:01:30.915Z,15.22
2023-05-23T07:04:01.370Z,15.19
2023-05-23T07:06:32.675Z,15.63
2023-05-23T07:09:04.166Z,15.43
2023-05-23T07:11:35.332Z,15.78
2023-05-23T07:14:07.724Z,15.57
2023-05-23T07:16:39.663Z,15.64
2023-05-23T07:19:10.285Z,15.68
2023-05-23T07:21:41.886Z,15.53
2023-05-23T07:24:12.011Z,15.94
2023-05-23T07:26:41.935Z,15.90
2023-05-23T07:29:12.239Z,16.70
2023-05-23T07:31:42.335Z,16.97
2023-05-23T07:34:13.044Z,17.19
2023-05-23T07:36:44.593Z,17.40
2023-05-23T07:39:15.485Z,17.01
2023-05-23T07:41:45.597Z,17.08
2023-05-23T07:44:15.779Z,16.92
2023-05-23T07:46:45.395Z,17.16
2023-05-23T07:49:15.639Z,17.01
2023-05-23T07:51:45.560Z,17.01
2023-05-23T07:54:16.765Z,17.02
2023-05-23T07:56:47.184Z,16.84
2023-05-23T07:59:17.959Z,16.69
2023-05-23T08:01:49.956Z,16.64
2023-05-23T08:04:21.911Z,16.96
2023-05-23T08:09:28.769Z,17.37
2023-05-23T08:11:59.214Z,17.37
2023-05-23T08:14:38.545Z,16.78
2023-05-23T08:17:10.372Z,16.78
2023-05-23T08:19:40.659Z,16.61
2023-05-23T08:22:10.763Z,16.17
2023-05-23T08:24:41.345Z,16.41
2023-05-23T08:27:11.658Z,16.42
2023-05-23T08:29:42.100Z,16.34
2023-05-23T08:32:12.267Z,16.37
2023-05-23T08:34:42.387Z,16.13
2023-05-23T08:37:12.242Z,16.02
2023-05-23T08:39:42.251Z,16.29
2023-05-23T08:42:22.755Z,16.50
2023-05-23T08:44:53.086Z,16.97
2023-05-23T08:47:24.283Z,17.02
2023-05-23T08:49:57.867Z,17.30
2023-05-23T08:52:30.924Z,17.22
2023-05-23T08:55:02.777Z,18.10
2023-05-23T08:57:33.023Z,18.87
2023-05-23T09:00:06.790Z,18.46
2023-05-23T09:02:37.879Z,18.70
2023-05-23T09:05:09.852Z,18.52
2023-05-23T09:07:40.593Z,18.40
2023-05-23T09:10:12.272Z,18.22
2023-05-23T09:12:43.554Z,17.80
2023-05-23T09:15:14.725Z,17.80
2023-05-23T09:17:45.832Z,18.46
2023-05-23T09:20:18.994Z,18.10
2023-05-23T09:22:53.185Z,18.23
2023-05-23T09:25:23.696Z,17.90
2023-05-23T09:27:56.195Z,17.90
2023-05-23T09:30:26.753Z,18.60
2023-05-23T09:33:05.794Z,18.11
2023-05-23T09:35:35.578Z,17.98
2023-05-23T09:38:07.297Z,18.22
2023-05-23T09:40:36.862Z,18.21
2023-05-23T09:43:07.790Z,18.04
2023-05-23T09:45:37.762Z,18.46
2023-05-23T09:48:11.853Z,18.27
2023-05-23T09:50:42.015Z,18.62
2023-05-23T09:53:12.677Z,18.31
2023-05-23T09:55:42.617Z,18.74
2023-05-23T09:58:13.378Z,18.36
2023-05-23T10:00:44.735Z,18.47
2023-05-23T10:03:17.340Z,19.08
2023-05-23T10:05:49.404Z,19.06
2023-05-23T10:08:31.125Z,19.39
2023-05-23T10:11:18.510Z,19.58
2023-05-23T10:13:51.673Z,19.58
2023-05-23T10:16:31.355Z,19.75
2023-05-23T10:19:04.619Z,20.48
2023-05-23T10:21:39.963Z,21.10
2023-05-23T10:24:09.994Z,20.96
2023-05-23T10:26:39.888Z,20.76
2023-05-23T10:29:09.736Z,20.75
2023-05-23T10:31:41.055Z,20.75
2023-05-23T10:34:30.820Z,20.39
2023-05-23T10:37:05.431Z,20.75
2023-05-23T10:40:02.337Z,21.35
2023-05-23T10:42:52.480Z,21.34
2023-05-23T10:45:24.256Z,21.49
2023-05-23T10:47:54.766Z,21.37
2023-05-23T10:50:35.413Z,21.37
2023-05-23T10:53:07.026Z,20.62
2023-05-23T10:55:38.231Z,20.73
2023-05-23T10:58:20.561Z,21.12
2023-05-23T11:01:02.895Z,21.32
2023-05-23T11:03:40.610Z,21.32
2023-05-23T11:06:14.490Z,21.98
2023-05-23T11:08:48.913Z,22.34
2023-05-23T11:11:17.472Z,21.39
2023-05-23T11:14:00.485Z,21.39
2023-05-23T11:16:42.190Z,21.71
2023-05-23T11:19:24.742Z,21.42
2023-05-23T11:21:57.854Z,21.04
2023-05-23T11:27:35.403Z,22.19
2023-05-23T11:30:10.714Z,22.03
2023-05-23T11:32:41.237Z,22.22
2023-05-23T11:35:12.452Z,21.81
2023-05-23T11:37:42.448Z,21.56
2023-05-23T11:40:38.586Z,21.17
2023-05-23T11:43:11.115Z,21.41
2023-05-23T11:45:41.944Z,21.41
2023-05-23T11:48:13.362Z,21.51
2023-05-23T11:50:48.318Z,21.74
2023-05-23T11:53:21.087Z,22.15
2023-05-23T11:56:00.456Z,21.69
2023-05-23T11:58:32.401Z,21.46
2023-05-23T12:01:10.130Z,21.53
2023-05-23T12:03:52.941Z,21.63
2023-05-23T12:06:24.740Z,21.66
2023-05-23T12:08:54.922Z,22.04
2023-05-23T12:11:26.187Z,21.23
2023-05-23T12:13:55.865Z,21.70
2023-05-23T12:16:25.764Z,22.02
2023-05-23T12:18:56.569Z,22.32
2023-05-23T12:21:31.720Z,21.99
2023-05-23T12:24:03.452Z,20.88
2023-05-23T12:26:33.287Z,20.88
2023-05-23T12:29:03.921Z,20.71
2023-05-23T12:31:34.929Z,21.03
2023-05-23T12:34:06.518Z,21.22
2023-05-23T12:36:47.947Z,21.11
2023-05-23T12:39:10.501Z,20.45
2023-05-23T12:41:45.836Z,20.48
2023-05-23T12:44:17.098Z,20.99
2023-05-23T12:46:48.185Z,21.52
2023-05-23T12:49:18.147Z,20.96
2023-05-23T12:51:48.340Z,21.22
2023-05-23T12:54:18.945Z,21.22
2023-05-23T12:56:48.546Z,21.67
2023-05-23T12:59:18.416Z,21.81
2023-05-23T13:01:48.315Z,22.15
2023-05-23T13:04:18.222Z,22.78
2023-05-23T13:06:48.092Z,22.23
2023-05-23T13:09:17.946Z,21.61
2023-05-23T13:11:48.172Z,20.97
2023-05-23T13:14:18.055Z,21.11
2023-05-23T13:16:47.907Z,21.10
2023-05-23T13:19:18.120Z,21.43
2023-05-23T13:21:50.000Z,20.97
2023-05-23T13:24:20.114Z,21.23
2023-05-23T13:26:49.672Z,21.54
2023-05-23T13:29:19.542Z,21.78
2023-05-23T13:31:49.280Z,21.28
2023-05-23T13:34:19.286Z,22.24
2023-05-23T13:36:49.217Z,22.82
2023-05-23T13:39:20.537Z,22.25
2023-05-23T13:41:51.580Z,22.10
2023-05-23T13:44:21.440Z,21.62
2023-05-23T13:46:51.370Z,21.16
2023-05-23T13:49:21.316Z,21.20
2023-05-23T13:51:51.211Z,21.82
2023-05-23T13:54:21.362Z,21.57
2023-05-23T13:56:51.225Z,21.57
2023-05-23T13:59:21.256Z,21.02
2023-05-23T14:01:51.246Z,20.86
2023-05-23T14:04:21.269Z,20.83
2023-05-23T14:06:51.487Z,21.40
2023-05-23T14:09:23.208Z,21.02
2023-05-23T14:11:52.865Z,21.60
2023-05-23T14:14:22.806Z,21.17
2023-05-23T14:16:52.798Z,21.18
2023-05-23T14:19:23.296Z,21.18
2023-05-23T14:21:53.147Z,20.55
2023-05-23T14:24:23.000Z,20.75
2023-05-23T14:26:53.095Z,21.13
2023-05-23T14:29:22.947Z,21.52
2023-05-23T14:31:53.106Z,21.84
2023-05-23T14:34:23.018Z,22.17
2023-05-23T14:36:52.871Z,22.36
2023-05-23T14:39:22.789Z,22.07
2023-05-23T14:41:53.013Z,21.86
2023-05-23T14:44:23.024Z,21.68
2023-05-23T14:46:52.946Z,21.76
2023-05-23T14:49:22.781Z,21.25
2023-05-23T14:51:52.719Z,21.06
2023-05-23T14:54:22.556Z,20.88
2023-05-23T14:56:53.447Z,19.79
2023-05-23T14:59:23.443Z,19.96
2023-05-23T15:01:53.480Z,20.31
2023-05-23T15:04:24.218Z,20.85
2023-05-23T15:06:54.301Z,21.35
2023-05-23T15:09:24.540Z,21.58
2023-05-23T15:11:54.952Z,21.67
2023-05-23T15:14:26.421Z,21.75
2023-05-23T15:16:57.149Z,21.75
2023-05-23T15:19:27.047Z,22.36
2023-05-23T15:21:56.885Z,21.74
2023-05-23T15:24:28.463Z,21.96
2023-05-23T15:27:11.680Z,22.10
2023-05-23T15:29:30.101Z,21.79
2023-05-23T15:32:00.211Z,21.33
2023-05-23T15:34:29.797Z,21.34
2023-05-23T15:36:59.637Z,20.82
2023-05-23T15:39:29.797Z,20.72
2023-05-23T15:42:01.117Z,20.36
2023-05-23T15:44:31.013Z,19.80
2023-05-23T15:47:00.888Z,19.81
2023-05-23T15:49:33.419Z,19.40
2023-05-23T15:52:03.291Z,19.56
2023-05-23T15:54:33.510Z,19.29
2023-05-23T15:57:03.364Z,19.80
2023-05-23T15:59:33.216Z,20.23
2023-05-23T16:02:04.733Z,20.21
2023-05-23T16:04:36.097Z,20.07
2023-05-23T16:07:06.540Z,19.99
2023-05-23T16:09:36.680Z,20.15
2023-05-23T16:12:08.448Z,19.86
2023-05-23T16:14:38.323Z,20.03
2023-05-23T16:17:08.218Z,20.09
2023-05-23T16:19:38.156Z,20.09
2023-05-23T16:22:08.895Z,20.07
2023-05-23T16:24:38.761Z,20.46
2023-05-23T16:27:08.723Z,20.57
2023-05-23T16:29:38.577Z,20.91
2023-05-23T16:32:09.968Z,20.90
2023-05-23T16:34:39.855Z,21.26
2023-05-23T16:37:09.768Z,20.63
2023-05-23T16:39:39.625Z,20.68
2023-05-23T16:42:10.093Z,20.79
2023-05-23T16:44:39.978Z,20.95
2023-05-23T16:47:09.916Z,20.90
2023-05-23T16:49:39.761Z,20.91
2023-05-23T16:52:10.448Z,20.20
2023-05-23T16:54:40.285Z,20.77
2023-05-23T16:57:10.524Z,20.84
2023-05-23T16:59:41.043Z,20.58
2023-05-23T17:02:12.596Z,20.58
2023-05-23T17:04:42.481Z,20.85
2023-05-23T17:07:12.372Z,20.20
2023-05-23T17:09:42.472Z,20.22
2023-05-23T17:12:13.248Z,20.19
2023-05-23T17:14:43.078Z,21.05
2023-05-23T17:17:12.910Z,20.21
2023-05-23T17:19:42.856Z,20.21
2023-05-23T17:22:13.333Z,20.23
2023-05-23T17:24:43.227Z,20.61
2023-05-23T17:27:13.027Z,20.38
2023-05-23T17:29:42.978Z,20.35
2023-05-23T17:32:13.309Z,20.31
2023-05-23T17:34:44.164Z,20.35
2023-05-23T17:37:15.081Z,20.27
2023-05-23T17:39:45.016Z,20.81
2023-05-23T17:42:14.786Z,20.81
2023-05-23T17:44:44.526Z,20.98
2023-05-23T17:47:14.434Z,21.00
2023-05-23T17:49:44.352Z,21.48
2023-05-23T17:52:15.049Z,21.16
2023-05-23T17:54:45.036Z,20.45
2023-05-23T17:57:16.038Z,20.45
2023-05-23T17:59:45.925Z,18.80
2023-05-23T18:02:15.821Z,18.43
2023-05-23T18:04:45.770Z,18.12
2023-05-23T18:07:17.957Z,17.47
2023-05-23T18:09:48.582Z,17.49
2023-05-23T18:12:18.504Z,17.22
2023-05-23T18:14:49.390Z,16.95
2023-05-23T18:17:19.643Z,16.73
2023-05-23T18:19:49.602Z,16.60
2023-05-23T18:22:20.728Z,16.43
2023-05-23T18:24:50.645Z,16.30
2023-05-23T18:27:20.271Z,16.02
2023-05-23T18:29:50.209Z,16.07
2023-05-23T18:32:20.773Z,16.07
2023-05-23T18:34:50.624Z,16.09
2023-05-23T18:37:20.573Z,15.69
2023-05-23T18:39:50.722Z,15.48
2023-05-23T18:42:20.567Z,15.31
2023-05-23T18:44:50.720Z,15.59
2023-05-23T18:47:20.587Z,15.84
2023-05-23T18:49:50.253Z,15.91
2023-05-23T18:52:20.163Z,15.56
2023-05-23T18:54:53.500Z,15.43
2023-05-23T18:57:23.704Z,15.19
2023-05-23T18:59:53.906Z,15.15
2023-05-23T19:02:23.795Z,15.12
2023-05-23T19:04:53.861Z,15.15
2023-05-23T19:07:23.699Z,14.85
2023-05-23T19:09:53.640Z,14.69
2023-05-23T19:12:23.201Z,14.73
2023-05-23T19:14:53.303Z,14.75
2023-05-23T19:17:23.155Z,14.75
2023-05-23T19:19:52.996Z,14.65
2023-05-23T19:22:22.895Z,14.65
2023-05-23T19:24:52.730Z,14.61
2023-05-23T19:27:22.375Z,14.61
2023-05-23T19:29:52.221Z,14.40
2023-05-23T19:32:22.224Z,14.47
2023-05-23T19:34:52.414Z,14.35
2023-05-23T19:37:22.552Z,14.33
2023-05-23T19:39:52.384Z,14.10
2023-05-23T19:42:22.315Z,14.12
2023-05-23T19:44:52.261Z,14.12
2023-05-23T19:47:22.174Z,14.05
2023-05-23T19:49:52.117Z,14.02
2023-05-23T19:52:21.654Z,14.01
2023-05-23T19:54:51.466Z,14.07
2023-05-23T19:57:21.637Z,14.04
2023-05-23T19:59:51.855Z,13.85
2023-05-23T20:02:22.071Z,13.83
2023-05-23T20:04:51.899Z,13.69
2023-05-23T20:07:22.033Z,13.57
2023-05-23T20:09:52.050Z,13.54
2023-05-23T20:12:21.593Z,13.78
2023-05-23T20:14:51.822Z,13.73
2023-05-23T20:17:22.070Z,13.78
2023-05-23T20:19:51.941Z,13.68
2023-05-23T20:22:21.576Z,13.87
2023-05-23T20:24:51.400Z,13.69
2023-05-23T20:27:21.653Z,13.56
2023-05-23T20:29:52.233Z,13.52
2023-05-23T20:32:22.073Z,13.52
2023-05-23T20:34:51.922Z,13.42
2023-05-23T20:37:21.776Z,13.50
2023-05-23T20:39:52.301Z,13.40
2023-05-23T20:42:22.517Z,13.44
2023-05-23T20:44:52.691Z,13.44
2023-05-23T20:47:22.271Z,13.26
2023-05-23T20:49:52.149Z,13.09
2023-05-23T20:52:22.838Z,13.09
2023-05-23T20:54:54.450Z,13.21
2023-05-23T20:57:24.291Z,13.05
2023-05-23T20:59:54.161Z,13.08
2023-05-23T21:02:23.899Z,12.82
2023-05-23T21:04:53.903Z,12.99
2023-05-23T21:07:23.761Z,12.97
2023-05-23T21:09:53.597Z,12.79
2023-05-23T21:12:23.264Z,12.71
2023-05-23T21:14:53.258Z,12.79
2023-05-23T21:17:23.219Z,12.71
2023-05-23T21:19:53.153Z,12.71
2023-05-23T21:22:22.992Z,12.80
2023-05-23T21:24:52.877Z,12.83
2023-05-23T21:27:22.776Z,12.66
2023-05-23T21:29:52.793Z,12.68
2023-05-23T21:32:23.376Z,12.53
2023-05-23T21:34:53.973Z,12.62
2023-05-23T21:37:23.883Z,12.55
2023-05-23T21:39:53.694Z,12.47
2023-05-23T21:42:24.709Z,12.43
2023-05-23T21:44:54.525Z,12.19
2023-05-23T21:47:25.124Z,12.22
2023-05-23T21:49:55.069Z,12.21
2023-05-23T21:52:24.620Z,12.17
2023-05-23T21:54:54.761Z,12.23
2023-05-23T21:57:24.609Z,12.08
2023-05-23T21:59:54.212Z,12.00
2023-05-23T22:02:24.332Z,12.04
2023-05-23T22:04:54.262Z,11.93
2023-05-23T22:07:25.769Z,11.97
2023-05-23T22:09:56.254Z,12.13
2023-05-23T22:12:26.137Z,11.96
2023-05-23T22:14:57.061Z,11.93
2023-05-23T22:17:27.004Z,12.07
2023-05-23T22:19:58.017Z,11.84
2023-05-23T22:22:28.060Z,11.75
2023-05-23T22:24:57.908Z,11.72
2023-05-23T22:27:27.987Z,11.76
2023-05-23T22:29:57.883Z,11.73
2023-05-23T22:32:27.760Z,11.74
2023-05-23T22:34:57.666Z,11.73
2023-05-23T22:37:27.287Z,11.43
2023-05-23T22:39:57.194Z,11.45
2023-05-23T22:42:26.741Z,11.55
2023-05-23T22:44:56.725Z,11.47
2023-05-23T22:47:28.118Z,11.45
2023-05-23T22:49:59.444Z,11.58
2023-05-23T22:52:31.182Z,11.44
2023-05-23T22:55:01.246Z,11.47
2023-05-23T22:57:31.113Z,11.34
2023-05-23T23:00:01.078Z,11.34
2023-05-23T23:02:31.107Z,11.31
2023-05-23T23:05:01.060Z,11.37
2023-05-23T23:07:30.882Z,11.31
2023-05-23T23:10:00.791Z,11.21
2023-05-23T23:12:30.715Z,11.22
2023-05-23T23:15:00.565Z,11.30
2023-05-23T23:17:30.227Z,11.19
2023-05-23T23:20:00.239Z,11.19
2023-05-23T23:22:30.092Z,11.28
2023-05-23T23:25:00.131Z,11.07
2023-05-23T23:27:31.535Z,10.94
2023-05-23T23:30:01.441Z,10.92
2023-05-23T23:32:33.978Z,10.89
2023-05-23T23:35:03.383Z,10.90
2023-05-23T23:37:33.234Z,10.87
2023-05-23T23:40:03.428Z,10.89
2023-05-23T23:42:33.596Z,10.89
2023-05-23T23:45:03.761Z,11.05
2023-05-23T23:47:33.729Z,10.98
2023-05-23T23:50:05.197Z,11.00
2023-05-23T23:52:37.253Z,10.89
2023-05-23T23:55:07.726Z,10.91
2023-05-23T23:57:37.566Z,10.69
